Time;durP1;ratioP1;P1;durP2;ratioP2;P2;SDS_P1;SDS_P2;PMS_P1;PMS_P2;Temp;Humidity;BMP_temperature;BMP_pressure;BME280_temperature;BME280_humidity;BME280_pressure;Samples;Min_cycle;Max_cycle;Signal;HPM_P1;HPM_P2
2023/04/23 00:00:56;;;;;;;8.30;5.30;;;;;;;19.39;34.67;99999.29;108226;1254;73035;-65
2023/04/23 00:03:25;;;;;;;12.10;5.90;;;;;;;19.62;34.59;100003.24;108118;1253;63003;-65
2023/04/23 00:05:55;;;;;;;7.80;5.30;;;;;;;19.74;34.61;100000.14;108135;1254;60431;-67
2023/04/23 00:08:24;;;;;;;9.80;5.40;;;;;;;20.74;33.67;100000.73;108187;1253;74858;-65
2023/04/23 00:10:53;;;;;;;11.20;5.40;;;;;;;23.74;29.91;99993.54;108223;1256;69805;-67
2023/04/23 00:13:21;;;;;;;11.00;5.80;;;;;;;23.80;29.55;99998.77;108261;1253;73455;-65
2023/04/23 00:15:49;;;;;;;8.10;5.30;;;;;;;23.82;29.23;99999.11;108273;1254;62913;-68
2023/04/23 00:18:18;;;;;;;8.40;5.20;;;;;;;23.57;29.51;100001.44;108307;1252;60559;-66
2023/04/23 00:20:46;;;;;;;10.90;5.10;;;;;;;23.85;29.28;100001.17;108242;1254;73386;-67
2023/04/23 00:23:14;;;;;;;11.40;5.90;;;;;;;23.96;29.05;99996.37;108109;1254;70652;-65
2023/04/23 00:25:42;;;;;;;9.30;5.90;;;;;;;24.00;28.91;100002.41;108269;1252;72250;-65
2023/04/23 00:28:10;;;;;;;12.00;6.20;;;;;;;24.35;28.33;99999.58;108295;1254;61067;-67
2023/04/23 00:30:39;;;;;;;9.70;5.90;;;;;;;24.00;28.58;100005.09;108302;1253;61329;-67
2023/04/23 00:33:07;;;;;;;9.80;6.00;;;;;;;23.93;28.84;100004.14;108204;1254;74015;-67
2023/04/23 00:35:35;;;;;;;10.40;6.00;;;;;;;24.01;28.72;100004.81;108280;1254;71398;-67
2023/04/23 00:38:04;;;;;;;10.80;6.00;;;;;;;24.07;28.93;100004.45;108243;1254;72168;-68
2023/04/23 00:40:32;;;;;;;11.50;6.40;;;;;;;23.99;28.86;100005.76;108229;1254;61749;-66
2023/04/23 00:43:00;;;;;;;11.20;6.10;;;;;;;23.87;29.06;100006.02;108049;1254;60560;-68
2023/04/23 00:45:29;;;;;;;10.30;6.20;;;;;;;23.91;29.16;100009.00;108058;1254;72993;-68
2023/04/23 00:47:57;;;;;;;12.00;6.60;;;;;;;23.92;29.35;100009.46;108287;1254;69658;-69
2023/04/23 00:50:25;;;;;;;10.30;5.90;;;;;;;23.80;29.39;100011.19;108277;1254;73843;-67
2023/04/23 00:52:53;;;;;;;11.70;6.80;;;;;;;23.75;29.31;100014.98;108314;1253;61420;-69
2023/04/23 00:55:21;;;;;;;14.70;6.20;;;;;;;23.61;29.29;100010.88;108226;1254;60535;-66
2023/04/23 00:57:49;;;;;;;10.10;6.00;;;;;;;23.37;29.41;100009.36;108143;1253;74306;-68
2023/04/23 01:00:19;;;;;;;10.30;6.20;;;;;;;23.50;29.23;100006.70;107979;1254;71075;-68
2023/04/23 01:02:49;;;;;;;14.30;6.60;;;;;;;23.63;29.11;100011.44;108277;1253;73387;-67
2023/04/23 01:05:17;;;;;;;12.30;7.10;;;;;;;23.58;29.16;100006.05;108274;1253;62666;-67
2023/04/23 01:07:46;;;;;;;15.00;6.60;;;;;;;23.32;29.37;100007.36;108086;1253;60934;-68
2023/04/23 01:10:15;;;;;;;11.40;6.20;;;;;;;23.41;29.22;100009.94;108207;1254;72944;-67
2023/04/23 01:12:45;;;;;;;11.50;6.00;;;;;;;23.52;29.35;100007.66;108206;1254;70026;-67
2023/04/23 01:15:13;;;;;;;10.40;6.50;;;;;;;23.41;29.35;100006.65;108262;1254;72052;-67
2023/04/23 01:17:41;;;;;;;10.00;5.90;;;;;;;23.19;29.53;100009.55;108150;1254;62463;-67
2023/04/23 01:20:10;;;;;;;11.50;6.40;;;;;;;21.82;30.86;100014.52;108319;1254;59383;-67
2023/04/23 01:22:38;;;;;;;14.10;7.10;;;;;;;19.81;33.79;100020.84;108075;1254;73099;-66
2023/04/23 01:25:07;;;;;;;11.00;5.70;;;;;;;19.30;34.66;100021.85;108250;1252;70422;-64
2023/04/23 01:27:36;;;;;;;10.70;6.60;;;;;;;19.37;34.78;100023.80;108217;1256;73993;-69
2023/04/23 01:30:04;;;;;;;10.60;6.40;;;;;;;19.51;34.77;100022.92;108092;1253;62381;-67
2023/04/23 01:32:34;;;;;;;9.90;5.70;;;;;;;19.42;34.87;100023.76;108248;1252;61504;-68
2023/04/23 01:35:03;;;;;;;24.20;7.90;;;;;;;19.58;34.90;100025.27;108231;1254;74835;-66
2023/04/23 01:37:32;;;;;;;13.50;6.50;;;;;;;19.52;35.03;100023.59;108295;1254;70236;-67
2023/04/23 01:40:00;;;;;;;15.20;6.20;;;;;;;19.54;35.08;100023.25;108254;1254;71541;-69
2023/04/23 01:42:29;;;;;;;11.10;6.50;;;;;;;19.61;34.98;100028.59;108113;1254;62293;-67
2023/04/23 01:44:56;;;;;;;9.70;5.60;;;;;;;19.73;34.74;100028.06;108239;1254;59606;-68
2023/04/23 01:47:25;;;;;;;17.10;6.50;;;;;;;19.76;34.76;100027.08;108086;1254;74934;-68
2023/04/23 01:49:53;;;;;;;12.40;6.80;;;;;;;19.58;35.12;100029.50;108284;1254;71742;-68
2023/04/23 01:52:21;;;;;;;9.50;6.20;;;;;;;19.50;35.28;100031.02;108051;1252;74108;-68
2023/04/23 01:54:50;;;;;;;15.80;8.30;;;;;;;19.62;35.25;100031.92;108226;1253;60876;-67
2023/04/23 01:57:22;;;;;;;14.90;6.30;;;;;;;19.46;35.56;100032.74;108289;1254;61163;-68
2023/04/23 02:00:02;;;;;;;11.30;6.20;;;;;;;19.42;35.75;100032.46;108158;1254;73177;-67
2023/04/23 02:02:40;;;;;;;12.80;6.10;;;;;;;19.31;35.91;100034.05;108147;1256;69118;-69
2023/04/23 02:05:11;;;;;;;11.60;6.20;;;;;;;18.92;36.61;100034.46;108201;1254;74972;-68
2023/04/23 02:07:39;;;;;;;11.00;6.20;;;;;;;18.90;36.70;100037.04;108158;1254;61438;-67
2023/04/23 02:10:09;;;;;;;13.30;7.30;;;;;;;18.80;36.82;100037.80;108196;1254;61221;-66
2023/04/23 02:12:37;;;;;;;12.60;6.50;;;;;;;18.84;36.86;100034.86;108223;1254;73070;-67
2023/04/23 02:15:06;;;;;;;13.30;6.60;;;;;;;18.98;36.70;100037.70;108173;1254;71259;-68
2023/04/23 02:17:34;;;;;;;10.60;6.40;;;;;;;18.99;36.65;100039.23;108199;1253;72302;-67
2023/04/23 02:20:03;;;;;;;12.30;6.80;;;;;;;18.87;36.80;100037.63;108035;1252;62392;-68
2023/04/23 02:22:31;;;;;;;10.50;6.50;;;;;;;19.01;36.63;100036.61;108240;1254;61015;-66
2023/04/23 02:25:00;;;;;;;13.20;6.50;;;;;;;19.16;36.37;100040.19;108227;1253;73081;-68
2023/04/23 02:27:29;;;;;;;12.20;5.90;;;;;;;19.29;36.07;100041.48;108113;1254;69737;-68
2023/04/23 02:29:57;;;;;;;10.80;6.90;;;;;;;19.47;35.96;100041.24;108154;1254;73848;-68
2023/04/23 02:32:26;;;;;;;11.80;6.30;;;;;;;19.35;36.23;100043.02;108186;1253;61104;-67
2023/04/23 02:34:54;;;;;;;11.10;6.30;;;;;;;19.35;36.33;100042.61;108192;1253;61189;-65
2023/04/23 02:37:22;;;;;;;12.20;6.40;;;;;;;19.55;36.15;100046.54;108087;1254;74943;-66
2023/04/23 02:39:51;;;;;;;12.10;6.80;;;;;;;19.44;36.35;100048.88;108193;1254;69919;-65
2023/04/23 02:42:19;;;;;;;12.70;6.50;;;;;;;19.43;36.37;100051.42;108177;1256;72172;-68
2023/04/23 02:44:47;;;;;;;11.80;6.60;;;;;;;19.46;36.42;100051.80;108178;1254;62282;-67
2023/04/23 02:47:16;;;;;;;12.60;6.80;;;;;;;19.48;36.45;100050.23;108225;1256;60760;-67
2023/04/23 02:49:46;;;;;;;10.50;6.60;;;;;;;19.52;36.46;100049.73;108087;1259;75170;-65
2023/04/23 02:52:14;;;;;;;13.70;6.90;;;;;;;19.46;36.64;100046.98;108160;1253;69685;-66
2023/04/23 02:54:42;;;;;;;10.70;7.00;;;;;;;19.40;36.82;100049.88;108021;1253;73021;-66
2023/04/23 02:57:13;;;;;;;10.70;6.50;;;;;;;19.65;36.49;100052.85;108206;1255;60475;-67
2023/04/23 02:59:41;;;;;;;;;;;;;;;19.79;36.36;100053.04;108168;1255;60761;-69
2023/04/23 03:02:09;;;;;;;11.60;6.60;;;;;;;19.81;36.32;100056.48;108085;1258;74953;-66
2023/04/23 03:04:38;;;;;;;12.40;6.70;;;;;;;19.83;36.39;100054.73;108177;1254;71109;-68
2023/04/23 03:07:07;;;;;;;14.10;6.80;;;;;;;19.81;36.45;100053.04;108090;1259;72583;-67
2023/04/23 03:09:35;;;;;;;16.70;7.60;;;;;;;19.91;36.40;100058.38;108211;1256;61103;-67
2023/04/23 03:12:04;;;;;;;15.50;7.40;;;;;;;19.63;36.78;100055.29;108232;1254;60997;-65
2023/04/23 03:14:32;;;;;;;17.10;6.80;;;;;;;19.57;37.00;100054.71;108194;1254;73925;-64
2023/04/23 03:17:00;;;;;;;11.10;6.00;;;;;;;19.54;37.06;100060.60;108107;1259;70403;-64
2023/04/23 03:19:30;;;;;;;13.70;6.90;;;;;;;19.52;37.16;100063.06;108269;1255;71788;-66
2023/04/23 03:21:59;;;;;;;12.30;6.60;;;;;;;19.11;37.86;100068.48;108093;1254;60344;-66
2023/04/23 03:24:30;;;;;;;13.80;6.80;;;;;;;18.98;38.16;100072.27;108263;1256;60177;-67
2023/04/23 03:26:59;;;;;;;12.10;6.40;;;;;;;18.94;38.32;100070.38;108055;1257;73706;-67
2023/04/23 03:29:27;;;;;;;13.70;7.30;;;;;;;18.87;38.37;100073.80;108270;1254;71533;-66
2023/04/23 03:31:55;;;;;;;10.70;6.20;;;;;;;18.88;38.34;100075.83;108168;1254;71645;-68
2023/04/23 03:34:24;;;;;;;12.00;6.80;;;;;;;18.88;38.32;100072.62;108292;1254;62045;-66
2023/04/23 03:36:52;;;;;;;14.50;6.00;;;;;;;18.95;38.15;100075.48;108154;1253;60543;-67
2023/04/23 03:39:20;;;;;;;10.00;6.30;;;;;;;18.91;38.27;100080.42;108230;1254;73516;-68
2023/04/23 03:41:53;;;;;;;15.00;7.10;;;;;;;18.90;38.40;100084.25;108184;1254;69937;-67
2023/04/23 03:44:24;;;;;;;12.50;6.80;;;;;;;18.91;38.50;100085.41;108095;1254;73852;-66
2023/04/23 03:49:21;;;;;;;12.00;6.10;;;;;;;16.16;43.74;100097.36;104742;1294;600204;-68
2023/04/23 03:51:48;;;;;;;17.20;6.70;;;;;;;17.29;41.66;100097.23;107303;1268;62238;-67
2023/04/23 03:54:17;;;;;;;11.20;6.70;;;;;;;17.76;41.08;100096.40;107867;1257;61257;-69
2023/04/23 03:57:22;;;;;;;11.70;6.70;;;;;;;17.84;41.12;100095.45;107697;1257;73486;-66
2023/04/23 03:59:55;;;;;;;10.80;6.10;;;;;;;18.22;40.57;100095.21;107953;1257;69744;-67
2023/04/23 04:02:23;;;;;;;14.30;6.30;;;;;;;18.61;39.93;100098.67;107825;1254;135366;-68
2023/04/23 04:04:53;;;;;;;9.90;6.40;;;;;;;18.84;39.65;100099.61;107982;1254;59978;-67
2023/04/23 04:07:20;;;;;;;11.70;6.10;;;;;;;18.81;39.64;100105.33;108087;1254;59330;-68
2023/04/23 04:09:48;;;;;;;10.90;5.90;;;;;;;18.99;39.47;100101.72;108039;1254;72928;-68
2023/04/23 04:12:15;;;;;;;10.20;6.10;;;;;;;19.14;39.18;100108.64;108082;1255;71373;-66
2023/04/23 04:14:42;;;;;;;10.40;6.00;;;;;;;19.30;38.94;100111.39;108065;1254;72556;-68
2023/04/23 04:17:11;;;;;;;9.20;5.80;;;;;;;19.36;38.90;100113.61;108042;1255;62753;-68
2023/04/23 04:19:38;;;;;;;10.00;6.00;;;;;;;19.52;38.58;100110.96;107888;1255;61453;-68
2023/04/23 04:22:05;;;;;;;14.10;6.00;;;;;;;19.81;38.09;100118.27;108048;1256;74270;-67
2023/04/23 04:24:34;;;;;;;11.00;5.80;;;;;;;19.62;38.29;100115.80;108109;1256;70204;-67
2023/04/23 04:27:01;;;;;;;12.90;5.90;;;;;;;19.78;38.19;100119.08;108020;1255;71926;-68
2023/04/23 04:29:28;;;;;;;9.10;6.40;;;;;;;19.98;37.91;100124.30;107824;1255;63138;-67
2023/04/23 04:31:55;;;;;;;11.70;6.30;;;;;;;20.18;37.72;100125.23;108158;1257;59507;-67
2023/04/23 04:34:22;;;;;;;10.60;6.30;;;;;;;20.23;37.66;100127.54;108048;1257;73993;-67
2023/04/23 04:36:52;;;;;;;11.60;6.60;;;;;;;20.39;37.54;100124.88;108027;1256;71617;-67
2023/04/23 04:39:19;;;;;;;10.80;6.00;;;;;;;20.43;37.48;100126.70;108008;1256;73958;-68
2023/04/23 04:41:46;;;;;;;8.90;5.30;;;;;;;20.51;37.31;100129.70;108052;1255;61332;-67
2023/04/23 04:44:15;;;;;;;11.40;5.70;;;;;;;20.74;37.15;100129.81;108026;1256;59817;-68
2023/04/23 04:46:41;;;;;;;12.00;5.60;;;;;;;20.87;36.95;100134.73;108092;1257;74090;-68
2023/04/23 04:49:09;;;;;;;12.10;6.40;;;;;;;20.97;36.84;100135.11;108001;1255;71545;-69
2023/04/23 04:51:37;;;;;;;13.50;5.70;;;;;;;21.42;36.21;100133.30;108042;1256;72507;-68
2023/04/23 04:54:05;;;;;;;28.60;6.30;;;;;;;21.63;36.06;100130.86;108016;1256;61867;-67
2023/04/23 04:56:33;;;;;;;15.20;5.50;;;;;;;21.73;35.66;100135.89;108009;1255;59497;-69
2023/04/23 04:59:00;;;;;;;9.70;5.70;;;;;;;21.78;35.59;100136.23;108047;1254;72358;-69
2023/04/23 05:01:27;;;;;;;11.60;5.30;;;;;;;21.99;35.31;100139.44;107929;1255;69771;-69
2023/04/23 05:03:55;;;;;;;9.90;4.90;;;;;;;22.04;35.13;100139.20;108192;1254;73613;-67
2023/04/23 05:06:21;;;;;;;14.70;5.90;;;;;;;21.82;35.51;100140.88;108062;1254;61061;-67
2023/04/23 05:08:48;;;;;;;9.70;5.30;;;;;;;22.45;34.66;100141.66;107988;1254;61168;-67
2023/04/23 05:11:16;;;;;;;8.70;5.20;;;;;;;22.70;34.00;100139.26;108016;1254;72626;-67
2023/04/23 05:13:44;;;;;;;14.70;5.90;;;;;;;22.63;34.06;100144.34;108018;1254;70567;-68
2023/04/23 05:16:12;;;;;;;10.90;5.40;;;;;;;22.73;33.63;100148.45;108132;1254;73410;-67
2023/04/23 05:18:40;;;;;;;10.10;5.60;;;;;;;23.01;33.04;100145.20;107968;1254;60642;-68
2023/04/23 05:21:06;;;;;;;10.30;5.50;;;;;;;23.13;32.55;100148.17;108004;1254;59469;-69
2023/04/23 05:23:34;;;;;;;9.00;5.50;;;;;;;23.32;32.04;100146.55;108312;1251;74158;-69
2023/04/23 05:26:02;;;;;;;11.90;6.20;;;;;;;23.27;31.74;100153.04;108393;1251;71005;-68
2023/04/23 05:28:29;;;;;;;16.70;6.10;;;;;;;23.32;31.58;100150.66;108314;1251;72995;-69
2023/04/23 05:30:56;;;;;;;11.20;6.40;;;;;;;23.29;31.75;100151.83;108350;1251;60535;-69
2023/04/23 05:33:23;;;;;;;8.90;6.10;;;;;;;23.53;31.38;100153.90;108445;1251;60769;-69
2023/04/23 05:35:53;;;;;;;10.00;5.80;;;;;;;23.78;31.18;100157.04;108329;1251;70888;-68
2023/04/23 05:38:20;;;;;;;12.10;6.20;;;;;;;23.83;31.22;100160.02;108287;1251;71300;-68
2023/04/23 05:40:47;;;;;;;9.80;6.00;;;;;;;23.86;31.07;100164.53;108319;1256;70904;-69
2023/04/23 05:43:14;;;;;;;9.10;5.50;;;;;;;23.92;30.99;100162.36;108328;1254;59745;-68
2023/04/23 05:45:40;;;;;;;13.00;6.40;;;;;;;24.05;30.63;100162.45;108386;1255;60256;-68
2023/04/23 05:48:07;;;;;;;12.30;6.60;;;;;;;23.97;30.17;100167.14;108389;1251;73354;-68
2023/04/23 05:50:34;;;;;;;14.50;6.40;;;;;;;23.96;30.20;100165.95;108332;1251;70100;-68
2023/04/23 05:53:01;;;;;;;11.30;6.30;;;;;;;24.51;29.63;100166.20;108432;1251;72521;-68
2023/04/23 05:55:29;;;;;;;14.30;6.80;;;;;;;24.78;29.09;100171.16;108352;1253;59913;-68
2023/04/23 05:57:55;;;;;;;14.40;6.20;;;;;;;25.02;28.82;100166.70;108367;1253;60582;-69
2023/04/23 06:00:22;;;;;;;20.60;7.60;;;;;;;25.27;28.62;100170.92;108245;1253;73902;-69
2023/04/23 06:02:48;;;;;;;12.10;6.90;;;;;;;25.53;28.17;100169.30;108281;1252;69060;-68
2023/04/23 06:05:16;;;;;;;12.80;7.80;;;;;;;26.10;27.77;100168.77;108222;1253;73882;-68
2023/04/23 06:07:43;;;;;;;11.70;6.70;;;;;;;27.10;27.13;100166.70;108272;1253;60459;-67
2023/04/23 06:10:11;;;;;;;14.20;7.10;;;;;;;28.03;25.99;100167.90;108287;1252;61580;-68
2023/04/23 06:12:38;;;;;;;13.40;6.00;;;;;;;29.01;24.59;100173.45;108266;1254;74118;-68
2023/04/23 06:15:07;;;;;;;11.30;6.60;;;;;;;29.66;23.84;100169.54;108248;1253;69662;-70
2023/04/23 06:17:35;;;;;;;16.70;6.40;;;;;;;30.14;22.81;100169.91;108171;1253;73466;-69
2023/04/23 06:20:02;;;;;;;11.70;5.90;;;;;;;30.32;21.42;100172.63;108061;1252;59571;-69
2023/04/23 06:22:30;;;;;;;11.80;6.00;;;;;;;30.77;21.56;100171.76;108232;1253;60606;-69
2023/04/23 06:24:56;;;;;;;9.50;5.40;;;;;;;31.28;21.70;100174.45;108175;1253;73509;-68
2023/04/23 06:27:23;;;;;;;8.40;5.20;;;;;;;31.93;20.15;100170.14;108084;1253;69385;-67
2023/04/23 06:29:51;;;;;;;11.20;4.80;;;;;;;31.97;19.40;100170.98;108218;1253;73689;-69
2023/04/23 06:32:18;;;;;;;9.00;5.40;;;;;;;31.86;18.84;100175.63;108271;1253;61426;-69
2023/04/23 06:34:46;;;;;;;8.60;5.00;;;;;;;31.86;18.86;100180.23;108254;1252;60602;-69
2023/04/23 06:37:27;;;;;;;11.20;5.70;;;;;;;32.23;18.89;100179.05;108235;1252;74270;-69
2023/04/23 06:39:57;;;;;;;8.30;4.90;;;;;;;32.50;18.85;100181.52;108252;1253;69537;-70
2023/04/23 06:42:23;;;;;;;11.80;5.50;;;;;;;32.99;18.08;100182.23;108074;1253;73621;-68
2023/04/23 06:45:14;;;;;;;13.00;5.80;;;;;;;33.10;17.60;100184.39;108256;1252;60374;-70
2023/04/23 06:47:41;;;;;;;9.10;5.40;;;;;;;33.13;17.24;100187.14;108288;1253;59680;-70
2023/04/23 06:50:08;;;;;;;7.60;5.10;;;;;;;33.37;17.15;100183.84;108259;1253;71036;-69
2023/04/23 06:52:36;;;;;;;12.70;5.50;;;;;;;33.90;16.31;100182.41;108157;1256;69477;-70
2023/04/23 06:55:03;;;;;;;7.20;4.60;;;;;;;34.22;15.77;100181.73;108298;1251;72217;-70
2023/04/23 06:57:30;;;;;;;11.60;5.00;;;;;;;34.65;15.54;100180.06;108305;1251;59855;-69
2023/04/23 06:59:56;;;;;;;15.00;5.70;;;;;;;35.14;15.12;100182.44;108307;1251;59434;-69
2023/04/23 07:02:25;;;;;;;9.50;6.00;;;;;;;35.35;15.26;100182.36;108292;1251;65182;-69
2023/04/23 07:04:52;;;;;;;10.90;5.60;;;;;;;35.82;15.16;100179.48;108318;1251;62793;-70
2023/04/23 07:07:19;;;;;;;12.30;5.70;;;;;;;36.22;15.15;100179.60;108278;1251;65050;-71
2023/04/23 07:09:46;;;;;;;9.80;4.00;;;;;;;36.40;13.98;100179.95;108258;1251;59520;-69
2023/04/23 07:12:13;;;;;;;7.70;5.20;;;;;;;35.96;13.72;100179.36;108292;1251;59235;-69
2023/04/23 07:14:40;;;;;;;8.60;5.10;;;;;;;35.85;14.28;100183.14;108182;1251;65465;-71
2023/04/23 07:17:06;;;;;;;10.70;4.70;;;;;;;35.86;14.43;100181.92;108351;1253;61869;-69
2023/04/23 07:19:33;;;;;;;9.60;5.60;;;;;;;36.14;14.57;100177.52;108307;1251;64970;-70
2023/04/23 07:22:00;;;;;;;10.20;5.30;;;;;;;36.25;14.20;100175.35;108331;1251;60303;-70
2023/04/23 07:24:27;;;;;;;10.10;4.30;;;;;;;36.07;14.00;100180.17;108357;1252;59634;-70
2023/04/23 07:26:54;;;;;;;10.70;5.00;;;;;;;35.91;13.85;100185.39;108223;1251;64208;-70
2023/04/23 07:29:20;;;;;;;6.00;4.20;;;;;;;35.73;13.79;100186.30;108330;1251;61347;-70
2023/04/23 07:31:47;;;;;;;10.10;4.20;;;;;;;35.97;13.25;100186.39;108292;1251;59003;-70
2023/04/23 07:34:13;;;;;;;11.10;3.90;;;;;;;35.93;13.08;100183.94;108265;1251;59557;-70
2023/04/23 07:36:40;;;;;;;5.90;3.20;;;;;;;35.64;13.10;100188.86;108225;1251;59064;-68
2023/04/23 07:39:07;;;;;;;9.00;4.00;;;;;;;35.96;13.17;100189.73;108249;1253;65084;-71
2023/04/23 07:41:34;;;;;;;6.20;3.40;;;;;;;35.76;13.26;100193.79;108301;1251;61800;-69
2023/04/23 07:44:00;;;;;;;7.40;4.40;;;;;;;35.27;13.03;100194.30;108262;1251;63752;-70
2023/04/23 07:46:27;;;;;;;8.60;4.00;;;;;;;35.35;13.24;100196.08;108325;1251;59437;-70
2023/04/23 07:48:54;;;;;;;7.10;3.80;;;;;;;35.48;12.87;100199.64;108321;1251;59646;-71
2023/04/23 07:51:25;;;;;;;6.70;3.70;;;;;;;35.29;12.83;100197.04;108242;1251;65891;-69
2023/04/23 07:53:53;;;;;;;7.60;3.10;;;;;;;35.77;13.05;100195.91;108300;1251;61490;-72
2023/04/23 07:56:21;;;;;;;6.00;3.20;;;;;;;35.90;12.66;100194.16;108193;1252;64734;-71
2023/04/23 07:58:47;;;;;;;7.30;3.30;;;;;;;35.63;12.41;100194.19;108184;1253;60238;-70
2023/04/23 08:01:15;;;;;;;6.70;3.20;;;;;;;35.68;12.54;100196.58;108167;1253;59685;-72
2023/04/23 08:03:41;;;;;;;11.30;3.60;;;;;;;35.35;12.79;100195.36;108205;1252;64964;-71
2023/04/23 08:06:10;;;;;;;11.10;3.20;;;;;;;34.67;13.28;100194.54;108140;1253;62797;-71
2023/04/23 08:08:38;;;;;;;4.30;2.90;;;;;;;34.67;12.93;100195.14;108123;1253;73646;-69
2023/04/23 08:11:05;;;;;;;5.40;2.50;;;;;;;34.86;12.82;100191.65;108188;1252;61555;-69
2023/04/23 08:13:32;;;;;;;4.40;2.80;;;;;;;35.29;12.65;100193.13;108172;1253;60329;-70
2023/04/23 08:15:59;;;;;;;6.10;2.70;;;;;;;35.63;12.68;100190.36;108149;1252;65358;-69
2023/04/23 08:18:25;;;;;;;5.10;3.20;;;;;;;35.98;12.92;100189.45;108200;1253;62392;-69
2023/04/23 08:20:53;;;;;;;5.40;2.60;;;;;;;35.98;12.89;100186.71;108192;1253;64935;-71
2023/04/23 08:23:19;;;;;;;5.90;3.30;;;;;;;35.76;12.61;100186.20;108227;1253;59018;-70
2023/04/23 08:25:46;;;;;;;4.30;2.20;;;;;;;35.74;12.99;100182.54;108172;1257;60286;-68
2023/04/23 08:28:13;;;;;;;5.10;2.90;;;;;;;35.51;12.80;100182.33;108180;1253;65949;-68
2023/04/23 08:30:40;;;;;;;3.40;2.30;;;;;;;35.29;12.50;100184.99;108139;1257;62638;-70
2023/04/23 08:33:06;;;;;;;3.30;1.80;;;;;;;35.40;12.34;100185.95;108142;1252;63879;-69
2023/04/23 08:35:33;;;;;;;2.90;1.50;;;;;;;35.29;12.19;100186.13;108182;1253;59425;-69
2023/04/23 08:38:00;;;;;;;3.50;2.10;;;;;;;35.45;12.14;100182.32;108186;1252;60298;-69
2023/04/23 08:40:29;;;;;;;4.10;2.10;;;;;;;35.53;12.43;100179.37;108141;1252;65889;-69
2023/04/23 08:42:56;;;;;;;5.30;2.30;;;;;;;35.37;12.26;100184.92;108264;1253;61636;-69
2023/04/23 08:45:23;;;;;;;4.70;2.10;;;;;;;35.41;12.56;100177.91;108214;1252;65249;-70
2023/04/23 08:47:50;;;;;;;3.20;1.60;;;;;;;35.17;12.66;100178.17;108230;1253;60490;-69
2023/04/23 08:50:18;;;;;;;5.60;2.80;;;;;;;35.34;12.68;100176.93;108209;1253;60484;-70
2023/04/23 08:52:55;;;;;;;9.20;2.40;;;;;;;35.54;12.24;100175.11;108179;1253;66166;-71
2023/04/23 08:55:22;;;;;;;3.00;1.90;;;;;;;35.28;11.97;100172.44;108199;1253;62368;-71
2023/04/23 08:57:49;;;;;;;4.70;2.20;;;;;;;35.06;11.98;100170.94;108151;1252;64018;-69
2023/04/23 09:00:19;;;;;;;4.70;2.40;;;;;;;35.19;12.47;100167.44;108206;1253;59275;-71
2023/04/23 09:02:46;;;;;;;6.20;2.80;;;;;;;35.69;12.48;100166.80;108294;1253;60539;-71
2023/04/23 09:05:14;;;;;;;5.10;2.40;;;;;;;36.12;12.40;100163.16;108205;1253;65034;-70
2023/04/23 09:07:41;;;;;;;6.20;2.80;;;;;;;36.15;11.85;100166.96;108092;1253;62378;-71
2023/04/23 09:10:10;;;;;;;4.70;2.70;;;;;;;35.70;11.82;100167.02;108215;1252;64881;-69
2023/04/23 09:12:38;;;;;;;4.40;2.20;;;;;;;35.03;12.01;100160.75;108257;1252;60459;-68
2023/04/23 09:15:09;;;;;;;5.40;2.70;;;;;;;34.86;12.31;100161.85;108228;1253;60323;-69
2023/04/23 09:17:43;;;;;;;4.60;2.70;;;;;;;35.12;12.49;100163.86;108318;1253;66202;-71
2023/04/23 09:20:10;;;;;;;6.70;3.00;;;;;;;34.99;12.50;100155.12;108278;1252;70401;-70
2023/04/23 09:22:47;;;;;;;6.70;2.60;;;;;;;35.57;12.74;100152.61;108299;1252;65003;-69
2023/04/23 09:25:16;;;;;;;5.20;2.90;;;;;;;35.90;12.03;100153.23;108194;1252;60411;-68
2023/04/23 09:27:44;;;;;;;3.60;2.30;;;;;;;36.24;11.78;100153.38;108094;1253;60264;-70
2023/04/23 09:30:12;;;;;;;4.90;2.80;;;;;;;36.18;12.37;100151.58;108285;1253;65114;-69
2023/04/23 09:32:42;;;;;;;7.00;2.70;;;;;;;36.06;12.00;100151.97;108310;1251;62480;-69
2023/04/23 09:35:12;;;;;;;4.30;2.70;;;;;;;35.61;12.22;100153.81;108233;1252;65045;-69
2023/04/23 09:37:47;;;;;;;5.20;2.40;;;;;;;35.21;12.03;100153.81;108197;1252;60428;-69
2023/04/23 09:40:14;;;;;;;4.00;2.70;;;;;;;34.34;12.57;100154.66;108249;1252;60313;-68
2023/04/23 09:42:41;;;;;;;3.90;2.20;;;;;;;33.85;12.73;100152.31;108388;1253;74396;-70
2023/04/23 09:45:11;;;;;;;2.80;2.00;;;;;;;33.74;12.76;100154.19;108030;1253;69312;-69
2023/04/23 09:47:38;;;;;;;6.90;2.90;;;;;;;34.15;12.43;100148.13;108368;1253;65061;-69
2023/04/23 09:50:06;;;;;;;5.20;2.80;;;;;;;34.59;12.39;100145.58;108377;1253;60309;-68
2023/04/23 09:52:33;;;;;;;6.80;2.40;;;;;;;34.90;12.34;100142.05;108415;1255;60509;-68
2023/04/23 09:55:04;;;;;;;3.30;2.50;;;;;;;35.04;12.25;100142.05;108304;1251;65108;-69
2023/04/23 09:57:37;;;;;;;5.10;2.60;;;;;;;35.11;11.87;100140.77;108339;1251;62467;-70
2023/04/23 10:00:17;;;;;;;10.40;2.90;;;;;;;35.21;11.83;100143.46;108374;1251;65116;-71
2023/04/23 10:02:48;;;;;;;10.50;2.80;;;;;;;35.63;11.61;100141.48;108413;1253;60412;-71
2023/04/23 10:05:19;;;;;;;5.50;2.60;;;;;;;36.13;11.48;100132.69;108438;1251;60329;-70
2023/04/23 10:07:49;;;;;;;8.80;2.60;;;;;;;36.58;11.52;100136.16;108330;1251;66021;-68
2023/04/23 10:10:17;;;;;;;4.20;2.40;;;;;;;36.89;10.85;100135.41;108327;1251;62597;-69
2023/04/23 10:12:44;;;;;;;6.30;2.20;;;;;;;36.42;10.84;100136.25;108340;1252;64733;-70
2023/04/23 10:15:16;;;;;;;5.70;2.10;;;;;;;35.32;10.96;100139.39;108237;1251;60277;-69
2023/04/23 10:17:43;;;;;;;3.90;2.10;;;;;;;34.19;11.40;100138.36;108253;1251;60457;-69
2023/04/23 10:20:11;;;;;;;4.50;2.00;;;;;;;33.51;12.09;100141.52;108351;1251;65991;-70
2023/04/23 10:22:38;;;;;;;3.80;2.40;;;;;;;33.26;12.20;100139.90;108337;1251;70168;-70
2023/04/23 10:25:08;;;;;;;9.20;2.80;;;;;;;33.11;12.66;100137.98;108276;1251;72114;-70
2023/04/23 10:27:38;;;;;;;3.70;2.60;;;;;;;32.75;12.68;100130.73;108097;1251;61665;-70
2023/04/23 10:30:18;;;;;;;9.60;2.80;;;;;;;32.57;12.95;100130.25;108314;1251;60278;-71
2023/04/23 10:32:45;;;;;;;6.10;2.70;;;;;;;31.95;13.06;100134.92;108068;1251;73899;-71
2023/04/23 10:35:11;;;;;;;3.80;2.10;;;;;;;31.77;12.80;100130.92;108160;1251;60217;-68
2023/04/23 10:37:38;;;;;;;4.10;2.20;;;;;;;31.67;13.29;100130.78;108313;1251;72763;-70
2023/04/23 10:40:12;;;;;;;5.30;2.60;;;;;;;31.23;13.37;100131.13;108228;1251;61245;-69
2023/04/23 10:42:39;;;;;;;4.50;2.40;;;;;;;30.89;13.60;100131.16;108362;1251;60243;-69
2023/04/23 10:45:13;;;;;;;4.20;2.30;;;;;;;30.64;14.02;100130.55;108252;1251;72704;-68
2023/04/23 10:47:52;;;;;;;6.20;2.20;;;;;;;30.51;13.85;100132.20;108256;1251;70334;-69
2023/04/23 10:50:23;;;;;;;3.70;2.20;;;;;;;30.91;14.19;100130.63;108290;1256;73825;-69
2023/04/23 10:52:53;;;;;;;12.60;3.20;;;;;;;31.29;13.42;100132.91;108157;1253;61297;-69
2023/04/23 10:55:24;;;;;;;4.70;2.50;;;;;;;31.03;13.16;100128.16;108210;1253;60795;-68
2023/04/23 10:58:04;;;;;;;8.40;2.60;;;;;;;31.54;13.63;100120.13;108195;1252;74879;-70
2023/04/23 11:00:40;;;;;;;2.70;2.20;;;;;;;32.35;13.15;100118.95;108234;1253;69823;-69
2023/04/23 11:03:30;;;;;;;3.60;2.00;;;;;;;32.82;12.70;100118.86;108317;1252;72616;-70
2023/04/23 11:06:01;;;;;;;3.90;2.50;;;;;;;32.77;12.39;100119.64;108234;1252;61756;-68
2023/04/23 11:08:30;;;;;;;3.20;2.00;;;;;;;32.69;12.63;100123.08;108295;1253;60364;-70
2023/04/23 11:10:58;;;;;;;4.40;1.90;;;;;;;32.49;12.69;100118.58;108255;1255;73903;-70
2023/04/23 11:13:25;;;;;;;4.60;2.40;;;;;;;32.45;12.33;100119.69;108198;1253;69645;-69
2023/04/23 11:16:15;;;;;;;8.40;2.50;;;;;;;31.83;12.89;100119.10;108289;1253;73662;-70
2023/04/23 11:18:58;;;;;;;5.20;2.50;;;;;;;31.71;13.08;100124.45;108220;1253;61225;-69
2023/04/23 11:22:02;;;;;;;3.20;2.30;;;;;;;31.05;13.34;100132.64;108259;1252;60665;-69
2023/04/23 11:24:30;;;;;;;3.90;2.40;;;;;;;30.58;13.80;100125.86;108206;1253;73191;-69